EBOS

Ostend-Bruges International Airport

Ostend, Belgium
TAF COR EBOS 221103Z 2212/2318 22010KT 9999 SCT015 BKN040 TEMPO 2212/2220 4000 RA BECMG 2218/2220 16007KT BECMG 2310/2312 34018KT TEMPO 2310/2316 33020G30KT 4000 RA
Issued Valid From Valid To
Sep-22 @ 11:03 UTC
(4 hours ago)
Sep-22 @ 12:00 UTC
(3 hours ago)
Sep-23 @ 18:00 UTC
(-1 days ago)
to
to
to
to
to
TAF COR EBOS 221103Z 2212/2318 22010KT 9999 SCT015 BKN040 TEMPO 2212/2220 4000 RA BECMG 2218/2220 16007KT BECMG 2310/2312 34018KT TEMPO 2310/2316 33020G30KT 4000 RA
Issued Sep-22 @ 11:03 UTC
(4 hours ago)
Valid From Sep-22 @ 12:00 UTC
(3 hours ago)
Valid To Sep-23 @ 18:00 UTC
(-1 days ago)
-
-
-
-
-